Ash Fork, Arizona
Current Conditions -  °F | °C
As of 8:53 AM on Friday 21 Nov 2014 (Local Time) from KPRC Reporting Station
Scattered Clouds Scattered Clouds  
Wind Chill: 42°   Ceiling: Unl
Heat Index: 42°   Visibility: 10mi
Dew Point: 14°   Wind: 0mph
Humidity: 32%   Direction: NA
Pressure: 30.02"   Gusts: NA
Location:  35.23°N, 112.49°W
Report Text: KPRC 211553Z 00000KT 10SM SCT050 06/M10 A3002 RMK AO2 SLP143 T00561100
Loading
Personal Weather Stations






























Interactive Weather Map New forecast layout! Learn more

10-Day Weather Forecast

Advertisements
Track Severe Weather on mobile